Time;durP1;ratioP1;P1;durP2;ratioP2;P2;SDS_P1;SDS_P2;PMS_P1;PMS_P2;Temp;Humidity;BMP_temperature;BMP_pressure;BME280_temperature;BME280_humidity;BME280_pressure;Samples;Min_cycle;Max_cycle;Signal;HPM_P1;HPM_P2
2022/03/26 00:00:16;;;;;;;38.00;15.80;;;;;;;;;;5094833;28;20077;-45
2022/03/26 00:02:42;;;;;;;31.27;15.35;;;;;;;;;;5077188;28;20349;-45
2022/03/26 00:05:08;;;;;;;33.70;14.48;;;;;;;;;;5094899;28;20410;-47
2022/03/26 00:07:34;;;;;;;36.15;14.98;;;;;;;;;;5094774;28;20028;-45
2022/03/26 00:09:59;;;;;;;36.72;15.27;;;;;;;;;;5094933;28;20016;-46
2022/03/26 00:12:25;;;;;;;34.28;14.77;;;;;;;;;;5075785;28;20357;-45
2022/03/26 00:14:51;;;;;;;33.83;15.05;;;;;;;;;;5094185;28;20024;-45
2022/03/26 00:17:16;;;;;;;35.67;15.05;;;;;;;;;;5094791;28;20092;-56
2022/03/26 00:19:42;;;;;;;30.63;14.45;;;;;;;;;;5076493;28;20503;-58
2022/03/26 00:22:07;;;;;;;31.80;15.13;;;;;;;;;;5094693;28;20035;-59
2022/03/26 00:24:33;;;;;;;34.28;14.93;;;;;;;;;;5093258;28;20134;-58
2022/03/26 00:26:58;;;;;;;30.60;14.35;;;;;;;;;;5093189;28;20024;-57
2022/03/26 00:29:23;;;;;;;29.35;14.57;;;;;;;;;;5092406;28;20059;-51
2022/03/26 00:31:49;;;;;;;36.10;15.38;;;;;;;;;;5092569;28;20103;-51
2022/03/26 00:34:15;;;;;;;28.48;10.65;;;;;;;;;;5093102;28;20031;-46
2022/03/26 00:36:41;;;;;;;18.92;7.60;;;;;;;;;;5092714;28;20173;-52
2022/03/26 00:39:07;;;;;;;17.83;8.32;;;;;;;;;;5092301;28;20587;-55
2022/03/26 00:41:33;;;;;;;22.92;9.68;;;;;;;;;;5092841;28;20028;-57
2022/03/26 00:43:59;;;;;;;25.77;11.82;;;;;;;;;;5094004;28;20066;-56
2022/03/26 00:46:24;;;;;;;28.70;10.57;;;;;;;;;;5093861;28;20060;-58
2022/03/26 00:48:51;;;;;;;38.08;15.10;;;;;;;;;;5093685;28;20031;-58
2022/03/26 00:51:17;;;;;;;39.05;16.08;;;;;;;;;;5094056;28;20020;-60
2022/03/26 00:53:43;;;;;;;30.85;12.48;;;;;;;;;;5093863;28;20024;-57
2022/03/26 00:56:08;;;;;;;23.95;11.18;;;;;;;;;;5093744;28;20034;-58
2022/03/26 00:58:34;;;;;;;34.25;14.02;;;;;;;;;;5093567;28;20044;-53
2022/03/26 01:00:59;;;;;;;30.80;14.43;;;;;;;;;;5093673;28;20460;-57
2022/03/26 01:03:25;;;;;;;39.78;15.43;;;;;;;;;;5093925;28;20020;-56
2022/03/26 01:05:50;;;;;;;39.58;16.45;;;;;;;;;;5093518;28;20119;-59
2022/03/26 01:08:16;;;;;;;36.35;14.75;;;;;;;;;;5093868;28;20455;-57
2022/03/26 01:10:44;;;;;;;31.80;14.68;;;;;;;;;;5093383;28;20028;-59
2022/03/26 01:13:11;;;;;;;31.15;15.30;;;;;;;;;;5093440;28;20028;-59
2022/03/26 01:15:36;;;;;;;34.88;15.05;;;;;;;;;;5093395;28;20024;-58
2022/03/26 01:18:02;;;;;;;38.47;14.80;;;;;;;;;;5093407;28;20115;-59
2022/03/26 01:20:27;;;;;;;20.95;10.80;;;;;;;;;;5093331;28;20051;-60
2022/03/26 01:22:53;;;;;;;27.05;12.00;;;;;;;;;;5093210;28;20035;-58
2022/03/26 01:25:19;;;;;;;40.05;14.43;;;;;;;;;;5093199;28;20020;-57
2022/03/26 01:27:44;;;;;;;20.13;10.10;;;;;;;;;;5093130;28;20044;-59
2022/03/26 01:30:10;;;;;;;7.97;5.82;;;;;;;;;;5093362;28;20111;-58
2022/03/26 01:32:36;;;;;;;24.85;11.10;;;;;;;;;;5093149;28;20077;-57
2022/03/26 01:35:01;;;;;;;22.65;10.65;;;;;;;;;;5093072;28;20024;-58
2022/03/26 01:37:27;;;;;;;22.25;10.13;;;;;;;;;;5093355;28;20024;-47
2022/03/26 01:39:54;;;;;;;28.23;12.60;;;;;;;;;;5074935;28;20028;-56
2022/03/26 01:42:20;;;;;;;31.55;14.75;;;;;;;;;;5093281;28;20047;-57
2022/03/26 01:44:46;;;;;;;17.80;9.18;;;;;;;;;;5093075;28;20036;-58
2022/03/26 01:47:11;;;;;;;32.72;14.18;;;;;;;;;;5092841;28;20024;-58
2022/03/26 01:49:37;;;;;;;33.10;13.77;;;;;;;;;;5092871;28;20035;-47
2022/03/26 01:52:04;;;;;;;46.15;15.85;;;;;;;;;;5093129;28;20066;-46
2022/03/26 01:54:31;;;;;;;34.22;13.50;;;;;;;;;;5092790;28;20025;-46
2022/03/26 01:56:57;;;;;;;28.73;13.60;;;;;;;;;;5092504;28;20414;-47
2022/03/26 01:59:24;;;;;;;35.65;12.85;;;;;;;;;;5092969;28;20385;-45
2022/03/26 02:01:49;;;;;;;6.47;4.05;;;;;;;;;;5092210;28;20028;-45
2022/03/26 02:04:15;;;;;;;13.32;5.80;;;;;;;;;;5092540;28;20460;-46
2022/03/26 02:06:41;;;;;;;15.50;9.00;;;;;;;;;;5092515;28;20032;-45
2022/03/26 02:09:12;;;;;;;27.52;10.63;;;;;;;;;;5092850;28;20081;-46
2022/03/26 02:11:41;;;;;;;26.55;12.07;;;;;;;;;;5075311;28;20111;-49
2022/03/26 02:14:10;;;;;;;29.83;12.20;;;;;;;;;;5092533;28;20062;-48
2022/03/26 02:16:41;;;;;;;29.20;11.52;;;;;;;;;;5092472;28;20484;-47
2022/03/26 02:19:08;;;;;;;26.33;11.88;;;;;;;;;;5093045;28;20080;-48
2022/03/26 02:21:35;;;;;;;28.42;12.00;;;;;;;;;;5092705;28;20050;-48
2022/03/26 02:24:03;;;;;;;27.17;12.45;;;;;;;;;;5092429;28;20468;-46
2022/03/26 02:26:29;;;;;;;27.10;13.02;;;;;;;;;;5074992;28;20113;-45
2022/03/26 02:28:56;;;;;;;34.05;13.82;;;;;;;;;;5092556;28;20058;-45
2022/03/26 02:31:22;;;;;;;32.15;14.68;;;;;;;;;;5092368;28;20028;-45
2022/03/26 02:33:49;;;;;;;34.97;15.95;;;;;;;;;;5092309;28;20470;-45
2022/03/26 02:36:15;;;;;;;35.45;14.85;;;;;;;;;;5092269;28;20048;-47
2022/03/26 02:38:40;;;;;;;30.55;14.63;;;;;;;;;;5092577;28;20095;-45
2022/03/26 02:41:07;;;;;;;37.95;16.98;;;;;;;;;;5092188;28;20028;-46
2022/03/26 02:43:33;;;;;;;32.83;15.95;;;;;;;;;;5074203;28;20064;-47
2022/03/26 02:45:59;;;;;;;37.33;14.52;;;;;;;;;;5092369;28;20093;-45
2022/03/26 02:48:24;;;;;;;29.63;14.93;;;;;;;;;;5092406;28;20456;-45
2022/03/26 02:50:50;;;;;;;38.55;17.08;;;;;;;;;;5092409;28;20024;-46
2022/03/26 02:53:15;;;;;;;31.60;15.77;;;;;;;;;;5092077;28;20024;-46
2022/03/26 02:55:41;;;;;;;36.45;14.82;;;;;;;;;;5092392;28;20020;-45
2022/03/26 02:58:08;;;;;;;43.78;17.23;;;;;;;;;;5092046;28;20109;-46
2022/03/26 03:00:35;;;;;;;39.85;17.30;;;;;;;;;;5092311;28;20031;-45
2022/03/26 03:03:00;;;;;;;42.60;17.20;;;;;;;;;;5092263;28;20032;-47
2022/03/26 03:05:26;;;;;;;39.35;18.40;;;;;;;;;;5092305;28;20150;-45
2022/03/26 03:07:52;;;;;;;42.13;19.30;;;;;;;;;;5092170;28;20107;-45
2022/03/26 03:10:18;;;;;;;45.80;19.45;;;;;;;;;;5092297;28;20487;-45
2022/03/26 03:12:48;;;;;;;51.25;20.08;;;;;;;;;;5094412;28;20482;-53
2022/03/26 03:15:17;;;;;;;39.05;18.38;;;;;;;;;;5095979;28;20035;-45
2022/03/26 03:17:44;;;;;;;50.17;19.08;;;;;;;;;;5096019;28;20031;-58
2022/03/26 03:20:10;;;;;;;46.20;18.65;;;;;;;;;;5095565;28;20027;-59
2022/03/26 03:22:36;;;;;;;40.65;18.30;;;;;;;;;;5095596;28;20379;-59
2022/03/26 03:25:03;;;;;;;47.58;18.50;;;;;;;;;;5095841;28;20411;-58
2022/03/26 03:27:29;;;;;;;39.92;18.38;;;;;;;;;;5095720;28;20028;-59
2022/03/26 03:29:54;;;;;;;43.53;17.35;;;;;;;;;;5095739;28;20081;-61
2022/03/26 03:32:20;;;;;;;35.72;16.88;;;;;;;;;;5095386;28;20050;-58
2022/03/26 03:34:45;;;;;;;42.53;17.55;;;;;;;;;;5095284;28;20028;-60
2022/03/26 03:37:11;;;;;;;38.45;16.75;;;;;;;;;;5095312;28;20069;-60
2022/03/26 03:39:36;;;;;;;38.65;16.23;;;;;;;;;;5095510;28;20028;-58
2022/03/26 03:42:03;;;;;;;38.60;16.92;;;;;;;;;;5095250;28;20024;-59
2022/03/26 03:44:29;;;;;;;45.33;17.65;;;;;;;;;;5095185;28;20032;-58
2022/03/26 03:46:55;;;;;;;40.47;15.98;;;;;;;;;;5094953;28;20551;-60
2022/03/26 03:49:21;;;;;;;43.08;15.45;;;;;;;;;;5095371;28;20153;-45
2022/03/26 03:51:46;;;;;;;31.75;12.23;;;;;;;;;;5095077;28;20019;-45
2022/03/26 03:54:12;;;;;;;35.92;16.05;;;;;;;;;;5094936;28;20028;-60
2022/03/26 03:56:38;;;;;;;34.55;14.20;;;;;;;;;;5095011;28;20285;-59
2022/03/26 03:59:04;;;;;;;40.55;15.65;;;;;;;;;;5094644;28;20036;-59
2022/03/26 04:01:29;;;;;;;35.40;16.17;;;;;;;;;;5095156;28;20052;-59
2022/03/26 04:03:55;;;;;;;39.45;16.40;;;;;;;;;;5095096;28;20020;-58
2022/03/26 04:06:20;;;;;;;42.28;16.25;;;;;;;;;;5094945;28;20107;-58
2022/03/26 04:08:46;;;;;;;32.13;15.95;;;;;;;;;;5094672;28;20024;-59
2022/03/26 04:11:11;;;;;;;37.83;14.80;;;;;;;;;;5076567;28;20024;-59
2022/03/26 04:13:37;;;;;;;32.10;13.18;;;;;;;;;;5094812;28;20028;-58
2022/03/26 04:16:03;;;;;;;35.10;16.33;;;;;;;;;;5094923;28;20047;-59
2022/03/26 04:18:28;;;;;;;46.55;17.95;;;;;;;;;;5094760;28;20050;-58
2022/03/26 04:20:54;;;;;;;34.80;16.52;;;;;;;;;;5094699;28;20028;-58
2022/03/26 04:23:20;;;;;;;35.03;16.77;;;;;;;;;;5093551;28;20458;-58
2022/03/26 04:25:46;;;;;;;37.30;17.35;;;;;;;;;;5094682;28;20032;-47
2022/03/26 04:28:13;;;;;;;43.88;15.85;;;;;;;;;;5094521;28;20144;-53
2022/03/26 04:30:38;;;;;;;32.65;15.60;;;;;;;;;;5094957;28;20031;-52
2022/03/26 04:33:04;;;;;;;36.83;15.65;;;;;;;;;;5094411;28;20384;-51
2022/03/26 04:35:31;;;;;;;33.63;14.57;;;;;;;;;;5076462;28;20397;-53
2022/03/26 04:37:57;;;;;;;35.17;15.80;;;;;;;;;;5094399;28;20028;-53
2022/03/26 04:40:26;;;;;;;37.63;15.02;;;;;;;;;;5094339;28;20027;-47
2022/03/26 04:42:52;;;;;;;33.33;14.82;;;;;;;;;;5094117;28;20028;-46
2022/03/26 04:45:18;;;;;;;35.40;16.27;;;;;;;;;;5094244;28;20165;-52
2022/03/26 04:47:43;;;;;;;38.20;16.85;;;;;;;;;;5094133;28;20107;-51
2022/03/26 04:50:10;;;;;;;35.95;16.52;;;;;;;;;;5094206;28;20035;-49
2022/03/26 04:52:36;;;;;;;46.65;18.52;;;;;;;;;;5094040;28;20028;-55
2022/03/26 04:55:03;;;;;;;37.03;16.98;;;;;;;;;;5093787;28;20054;-55
2022/03/26 04:57:29;;;;;;;49.47;17.55;;;;;;;;;;5093711;28;20047;-52
2022/03/26 04:59:55;;;;;;;45.55;20.27;;;;;;;;;;5093723;28;20384;-53
2022/03/26 05:02:21;;;;;;;30.40;13.93;;;;;;;;;;5093636;28;20089;-52
2022/03/26 05:04:46;;;;;;;31.75;15.10;;;;;;;;;;5093960;28;20020;-52
2022/03/26 05:09:55;;;;;;;25.42;11.50;;;;;;;;;;5093866;28;20038;-51
2022/03/26 05:12:21;;;;;;;27.25;12.07;;;;;;;;;;5093534;28;20024;-55
2022/03/26 05:14:46;;;;;;;26.40;9.88;;;;;;;;;;5093749;28;20099;-54
2022/03/26 05:17:13;;;;;;;21.13;9.95;;;;;;;;;;5093233;28;20085;-54
2022/03/26 05:19:39;;;;;;;19.10;9.02;;;;;;;;;;5093389;28;20524;-51
2022/03/26 05:22:04;;;;;;;17.95;9.20;;;;;;;;;;5093296;28;20035;-54
2022/03/26 05:24:32;;;;;;;19.88;9.25;;;;;;;;;;5093499;28;20020;-59
2022/03/26 05:26:58;;;;;;;17.05;9.55;;;;;;;;;;5093222;28;20060;-60
2022/03/26 05:29:23;;;;;;;17.73;7.90;;;;;;;;;;5093190;28;20047;-53
2022/03/26 05:31:48;;;;;;;15.98;8.75;;;;;;;;;;5093443;28;20039;-50
2022/03/26 05:34:14;;;;;;;16.13;8.77;;;;;;;;;;5093276;28;20107;-48
2022/03/26 05:36:39;;;;;;;19.63;8.05;;;;;;;;;;5093299;28;20027;-46
2022/03/26 05:39:05;;;;;;;17.02;8.63;;;;;;;;;;5074862;28;20112;-55
2022/03/26 05:41:31;;;;;;;48.10;26.10;;;;;;;;;;5092897;28;20027;-52
2022/03/26 05:43:56;;;;;;;20.40;10.65;;;;;;;;;;5092860;28;20024;-49
2022/03/26 05:46:22;;;;;;;26.88;8.25;;;;;;;;;;5092823;28;20037;-58
2022/03/26 05:48:47;;;;;;;15.35;7.97;;;;;;;;;;5093204;28;20038;-50
2022/03/26 05:51:13;;;;;;;14.15;7.88;;;;;;;;;;5092722;28;20507;-57
2022/03/26 05:53:38;;;;;;;14.32;7.57;;;;;;;;;;5093041;28;20024;-57
2022/03/26 05:56:04;;;;;;;16.92;8.13;;;;;;;;;;5092947;28;20024;-59
2022/03/26 05:58:30;;;;;;;14.32;7.95;;;;;;;;;;5092570;28;20130;-49
2022/03/26 06:00:55;;;;;;;16.35;8.10;;;;;;;;;;5092619;28;20070;-55
2022/03/26 06:03:21;;;;;;;13.27;8.07;;;;;;;;;;5092821;28;20028;-59
2022/03/26 06:05:48;;;;;;;18.35;8.75;;;;;;;;;;5092649;28;20024;-55
2022/03/26 06:08:13;;;;;;;17.40;8.60;;;;;;;;;;5092560;28;20036;-59
2022/03/26 06:10:39;;;;;;;15.80;8.63;;;;;;;;;;5093038;28;20031;-60
2022/03/26 06:13:04;;;;;;;21.40;9.23;;;;;;;;;;5092826;28;20349;-58
2022/03/26 06:15:31;;;;;;;21.75;8.85;;;;;;;;;;5092762;28;20069;-61
2022/03/26 06:17:57;;;;;;;18.23;8.38;;;;;;;;;;5092710;28;20111;-59
2022/03/26 06:20:23;;;;;;;15.13;8.57;;;;;;;;;;5092730;28;20585;-60
2022/03/26 06:22:48;;;;;;;18.70;8.68;;;;;;;;;;5092370;28;20115;-61
2022/03/26 06:25:14;;;;;;;19.17;7.90;;;;;;;;;;5092348;28;20084;-60
2022/03/26 06:27:40;;;;;;;18.67;8.90;;;;;;;;;;5092609;28;20024;-57
2022/03/26 06:30:06;;;;;;;19.00;8.82;;;;;;;;;;5092274;28;20361;-60
2022/03/26 06:32:31;;;;;;;17.65;8.85;;;;;;;;;;5092604;28;20028;-59
2022/03/26 06:34:57;;;;;;;18.63;9.13;;;;;;;;;;5092252;28;20024;-59
2022/03/26 06:37:22;;;;;;;18.45;9.02;;;;;;;;;;5092445;28;20028;-54
2022/03/26 06:39:48;;;;;;;19.67;9.55;;;;;;;;;;5092244;28;20099;-60
2022/03/26 06:42:13;;;;;;;18.00;8.40;;;;;;;;;;5092522;28;20065;-60
2022/03/26 06:44:39;;;;;;;26.17;9.20;;;;;;;;;;5092434;28;20466;-59
2022/03/26 06:47:05;;;;;;;21.33;9.93;;;;;;;;;;5093553;28;20428;-61
2022/03/26 06:49:32;;;;;;;17.23;9.23;;;;;;;;;;5096212;28;20028;-61
2022/03/26 06:51:59;;;;;;;18.17;9.32;;;;;;;;;;5096450;28;20036;-58
2022/03/26 06:54:25;;;;;;;22.67;9.27;;;;;;;;;;5096154;28;20028;-60
2022/03/26 06:56:50;;;;;;;15.82;9.35;;;;;;;;;;5096085;28;20077;-61
2022/03/26 06:59:16;;;;;;;17.80;9.38;;;;;;;;;;5093854;28;20040;-62
2022/03/26 07:01:41;;;;;;;24.35;10.00;;;;;;;;;;5096065;28;20054;-61
2022/03/26 07:04:07;;;;;;;17.77;8.73;;;;;;;;;;5096177;28;20059;-61
2022/03/26 07:06:32;;;;;;;25.15;9.85;;;;;;;;;;5095861;28;20036;-62
2022/03/26 07:09:00;;;;;;;14.10;9.25;;;;;;;;;;5096106;28;20028;-62
2022/03/26 07:11:25;;;;;;;18.55;8.80;;;;;;;;;;5096105;28;20032;-47
2022/03/26 07:13:51;;;;;;;20.73;10.00;;;;;;;;;;5096112;28;20020;-58
2022/03/26 07:16:16;;;;;;;19.20;10.63;;;;;;;;;;5096027;28;20073;-56
2022/03/26 07:18:42;;;;;;;24.90;10.07;;;;;;;;;;5095651;28;20261;-64
2022/03/26 07:21:08;;;;;;;16.80;9.00;;;;;;;;;;5095972;28;20020;-60
2022/03/26 07:23:34;;;;;;;20.02;10.48;;;;;;;;;;5095531;28;20097;-62
2022/03/26 07:26:00;;;;;;;17.05;9.75;;;;;;;;;;5095812;28;20058;-65
2022/03/26 07:28:25;;;;;;;12.50;8.88;;;;;;;;;;5095476;28;20052;-63
2022/03/26 07:30:50;;;;;;;24.13;9.02;;;;;;;;;;5095751;28;20020;-64
2022/03/26 07:33:16;;;;;;;14.02;10.25;;;;;;;;;;5095349;28;20028;-55
2022/03/26 07:35:42;;;;;;;19.58;9.15;;;;;;;;;;5095653;28;20115;-57
2022/03/26 07:38:07;;;;;;;18.88;9.90;;;;;;;;;;5095608;28;20024;-47
2022/03/26 07:40:32;;;;;;;17.05;10.10;;;;;;;;;;5095785;28;20067;-49
2022/03/26 07:42:58;;;;;;;21.42;9.63;;;;;;;;;;5094989;28;20472;-65
2022/03/26 07:45:24;;;;;;;13.73;8.98;;;;;;;;;;5095327;28;20032;-53
2022/03/26 07:47:49;;;;;;;14.50;8.32;;;;;;;;;;5095189;28;20616;-54
2022/03/26 07:50:15;;;;;;;16.17;9.40;;;;;;;;;;5094845;28;20024;-47
2022/03/26 07:52:41;;;;;;;17.83;9.15;;;;;;;;;;5094830;28;20074;-65
2022/03/26 07:55:08;;;;;;;15.73;9.07;;;;;;;;;;5095047;28;20430;-65
2022/03/26 07:57:33;;;;;;;20.77;8.65;;;;;;;;;;5094151;28;20036;-47
2022/03/26 07:59:59;;;;;;;13.35;9.20;;;;;;;;;;5094173;28;20495;-51
2022/03/26 08:02:24;;;;;;;14.73;8.70;;;;;;;;;;5094654;28;20047;-64
2022/03/26 08:04:50;;;;;;;22.10;9.27;;;;;;;;;;5094493;28;20035;-64
2022/03/26 08:07:15;;;;;;;16.83;8.95;;;;;;;;;;5094438;28;20091;-54
2022/03/26 08:09:41;;;;;;;13.98;9.38;;;;;;;;;;5094500;28;20020;-62
2022/03/26 08:12:07;;;;;;;15.77;9.30;;;;;;;;;;5094670;28;20430;-63
2022/03/26 08:14:34;;;;;;;15.70;9.25;;;;;;;;;;5093874;28;20043;-63
2022/03/26 08:17:00;;;;;;;12.93;9.30;;;;;;;;;;5092801;28;20040;-66
2022/03/26 08:19:27;;;;;;;19.48;9.40;;;;;;;;;;5093094;28;20101;-65
2022/03/26 08:21:53;;;;;;;18.65;9.60;;;;;;;;;;5092601;28;20032;-56
2022/03/26 08:24:19;;;;;;;19.10;9.27;;;;;;;;;;5092721;28;20076;-57
2022/03/26 08:26:44;;;;;;;17.55;10.15;;;;;;;;;;5092694;28;20115;-66
2022/03/26 08:29:10;;;;;;;23.75;11.15;;;;;;;;;;5093669;28;20040;-67
2022/03/26 08:31:35;;;;;;;14.82;9.90;;;;;;;;;;5094522;28;20034;-66
2022/03/26 08:34:02;;;;;;;18.23;9.38;;;;;;;;;;5094494;28;20380;-66
2022/03/26 08:36:27;;;;;;;20.08;9.85;;;;;;;;;;5094352;28;20388;-65
2022/03/26 08:38:53;;;;;;;14.52;10.02;;;;;;;;;;5094079;28;20024;-56
2022/03/26 08:41:21;;;;;;;21.63;9.43;;;;;;;;;;5093930;28;20028;-64
2022/03/26 08:43:48;;;;;;;15.05;9.43;;;;;;;;;;5093822;28;20040;-50
2022/03/26 08:46:13;;;;;;;20.42;10.52;;;;;;;;;;5093435;28;20502;-63
2022/03/26 08:48:39;;;;;;;15.63;9.93;;;;;;;;;;5093890;28;20060;-66
2022/03/26 08:51:05;;;;;;;19.50;9.50;;;;;;;;;;5093821;28;20027;-66
2022/03/26 08:53:30;;;;;;;16.10;10.00;;;;;;;;;;5094164;28;20067;-66
2022/03/26 08:55:56;;;;;;;18.40;10.90;;;;;;;;;;5094067;28;20446;-62
2022/03/26 08:58:22;;;;;;;18.15;10.98;;;;;;;;;;5092375;28;20536;-63
2022/03/26 09:00:49;;;;;;;18.63;9.95;;;;;;;;;;5092447;28;20421;-68
2022/03/26 09:03:17;;;;;;;21.00;10.15;;;;;;;;;;5092193;28;20517;-68
2022/03/26 09:05:43;;;;;;;17.80;9.68;;;;;;;;;;5093862;28;20418;-68
2022/03/26 09:08:09;;;;;;;18.05;10.40;;;;;;;;;;5093684;28;20031;-68
2022/03/26 09:10:35;;;;;;;20.45;10.65;;;;;;;;;;5093034;28;20032;-53
2022/03/26 09:13:00;;;;;;;21.33;9.90;;;;;;;;;;5093138;28;20387;-61
2022/03/26 09:15:26;;;;;;;19.02;10.25;;;;;;;;;;5093644;28;20028;-62
2022/03/26 09:17:51;;;;;;;14.90;9.52;;;;;;;;;;5093364;28;20137;-60
2022/03/26 09:20:17;;;;;;;18.58;9.93;;;;;;;;;;5093595;28;20027;-66
2022/03/26 09:22:42;;;;;;;20.33;9.98;;;;;;;;;;5093466;28;20036;-68
2022/03/26 09:25:08;;;;;;;19.63;11.05;;;;;;;;;;5093505;28;20032;-67
2022/03/26 09:27:34;;;;;;;16.33;9.57;;;;;;;;;;5093368;28;20038;-67
2022/03/26 09:29:59;;;;;;;17.67;9.38;;;;;;;;;;5093466;28;20409;-67
2022/03/26 09:32:25;;;;;;;16.83;9.93;;;;;;;;;;5092318;28;20052;-67
2022/03/26 09:34:50;;;;;;;15.85;10.20;;;;;;;;;;5091550;28;20028;-67
2022/03/26 09:37:16;;;;;;;14.75;9.50;;;;;;;;;;5092303;28;20021;-65
2022/03/26 09:39:42;;;;;;;13.48;9.73;;;;;;;;;;5091135;28;20029;-65
2022/03/26 09:42:11;;;;;;;18.50;11.07;;;;;;;;;;5092366;28;20047;-67
2022/03/26 09:44:37;;;;;;;22.30;9.98;;;;;;;;;;5093266;28;20028;-68
2022/03/26 09:47:07;;;;;;;23.73;10.23;;;;;;;;;;5093030;28;20093;-64
2022/03/26 09:49:33;;;;;;;14.68;10.18;;;;;;;;;;5092565;28;20457;-65
2022/03/26 09:51:59;;;;;;;20.05;10.10;;;;;;;;;;5093055;28;20055;-62
2022/03/26 09:54:26;;;;;;;17.02;9.65;;;;;;;;;;5093241;28;20020;-64
2022/03/26 09:56:51;;;;;;;23.55;9.93;;;;;;;;;;5092726;28;20093;-60
2022/03/26 09:59:22;;;;;;;14.40;10.00;;;;;;;;;;5092573;28;20052;-61
2022/03/26 10:01:49;;;;;;;15.35;9.68;;;;;;;;;;5092808;28;20036;-65
2022/03/26 10:04:16;;;;;;;19.88;9.50;;;;;;;;;;5092677;28;20028;-64
2022/03/26 10:07:00;;;;;;;18.02;10.07;;;;;;;;;;5073572;28;20445;-63
2022/03/26 10:09:45;;;;;;;16.75;9.93;;;;;;;;;;5092732;28;20028;-50
2022/03/26 10:12:19;;;;;;;18.02;11.80;;;;;;;;;;5092160;28;20104;-52
2022/03/26 10:14:57;;;;;;;14.25;10.43;;;;;;;;;;5092173;28;20376;-57
2022/03/26 10:17:33;;;;;;;19.83;11.18;;;;;;;;;;5092727;28;20032;-61
2022/03/26 10:20:01;;;;;;;20.25;10.65;;;;;;;;;;5092454;28;20020;-60
2022/03/26 10:22:50;;;;;;;15.90;10.00;;;;;;;;;;5091562;28;20031;-60
2022/03/26 10:25:18;;;;;;;16.33;9.87;;;;;;;;;;5092539;28;20032;-67
2022/03/26 10:27:47;;;;;;;21.95;9.07;;;;;;;;;;5092203;28;20322;-64
2022/03/26 10:30:14;;;;;;;16.85;9.57;;;;;;;;;;5092255;28;20025;-59
2022/03/26 10:32:45;;;;;;;20.45;9.45;;;;;;;;;;5092312;28;20599;-66
2022/03/26 10:35:19;;;;;;;14.05;8.88;;;;;;;;;;5092106;28;20020;-62
2022/03/26 10:37:58;;;;;;;29.40;8.40;;;;;;;;;;5092055;28;20020;-52
2022/03/26 10:40:26;;;;;;;17.52;8.30;;;;;;;;;;5092076;28;20531;-51
2022/03/26 10:42:56;;;;;;;13.10;8.23;;;;;;;;;;5091704;28;20048;-52
2022/03/26 10:45:21;;;;;;;;;;;;;;;;;;5090660;28;20086;-52
2022/03/26 10:47:48;;;;;;;14.98;8.38;;;;;;;;;;5092143;28;19912;-50
2022/03/26 10:50:14;;;;;;;21.63;8.90;;;;;;;;;;5092389;28;20042;-53
2022/03/26 10:52:40;;;;;;;20.38;8.80;;;;;;;;;;5092482;28;20095;-52
2022/03/26 10:55:17;;;;;;;18.88;7.97;;;;;;;;;;5092281;28;20028;-53
2022/03/26 10:57:47;;;;;;;19.33;8.63;;;;;;;;;;5092184;28;20044;-51
2022/03/26 11:00:15;;;;;;;14.55;8.88;;;;;;;;;;5092299;28;20210;-51
2022/03/26 11:02:44;;;;;;;12.43;8.35;;;;;;;;;;5092400;28;20422;-53
2022/03/26 11:05:10;;;;;;;16.13;8.60;;;;;;;;;;5092011;28;20537;-50
2022/03/26 11:07:37;;;;;;;37.05;8.73;;;;;;;;;;5092242;28;20032;-51
2022/03/26 11:10:09;;;;;;;15.00;7.93;;;;;;;;;;5092283;28;20361;-51
2022/03/26 11:12:36;;;;;;;20.48;8.70;;;;;;;;;;5091915;28;20464;-53
2022/03/26 11:15:06;;;;;;;12.55;7.97;;;;;;;;;;5092230;28;20088;-49
2022/03/26 11:18:01;;;;;;;16.25;8.00;;;;;;;;;;5091914;28;20024;-50
2022/03/26 11:20:51;;;;;;;15.13;8.48;;;;;;;;;;5091970;28;20028;-52
2022/03/26 11:23:37;;;;;;;14.57;8.70;;;;;;;;;;5092175;28;20031;-53
2022/03/26 11:26:25;;;;;;;16.42;9.35;;;;;;;;;;5091927;28;20032;-50
2022/03/26 11:29:28;;;;;;;14.68;8.27;;;;;;;;;;5092080;28;20024;-53
2022/03/26 11:32:12;;;;;;;23.65;9.02;;;;;;;;;;5091784;28;20541;-51
2022/03/26 11:34:38;;;;;;;22.50;8.38;;;;;;;;;;5095489;28;20479;-49
2022/03/26 11:37:12;;;;;;;15.77;8.40;;;;;;;;;;5095669;28;20031;-51
2022/03/26 11:39:48;;;;;;;14.18;8.13;;;;;;;;;;5095629;28;20464;-51
2022/03/26 11:42:14;;;;;;;13.02;7.90;;;;;;;;;;5095581;28;20035;-50
2022/03/26 11:50:41;;;;;;;14.32;7.85;;;;;;;;;;5095266;28;20387;-52
2022/03/26 11:53:09;;;;;;;13.80;8.45;;;;;;;;;;5095425;28;20093;-49
2022/03/26 11:55:43;;;;;;;20.60;8.40;;;;;;;;;;5095059;28;20023;-49
2022/03/26 11:58:26;;;;;;;11.60;8.18;;;;;;;;;;5095025;28;20130;-49
2022/03/26 12:00:52;;;;;;;22.23;9.23;;;;;;;;;;5094920;28;20058;-49
2022/03/26 12:03:25;;;;;;;24.73;8.00;;;;;;;;;;5094818;28;20016;-48
2022/03/26 12:09:10;;;;;;;11.68;7.60;;;;;;;;;;5095180;28;20054;-48
2022/03/26 12:11:36;;;;;;;13.88;7.55;;;;;;;;;;5090841;28;20028;-47
2022/03/26 12:14:07;;;;;;;14.93;8.38;;;;;;;;;;5094965;28;20031;-47
2022/03/26 12:16:50;;;;;;;13.43;8.23;;;;;;;;;;5094947;28;20070;-49
2022/03/26 12:19:35;;;;;;;15.27;8.80;;;;;;;;;;5094519;28;20027;-50
2022/03/26 12:22:28;;;;;;;15.18;9.15;;;;;;;;;;5094804;28;20056;-47
2022/03/26 12:25:03;;;;;;;14.40;9.95;;;;;;;;;;5090291;28;20032;-48
2022/03/26 12:27:29;;;;;;;15.60;9.20;;;;;;;;;;5094603;28;20020;-47
2022/03/26 12:29:56;;;;;;;16.98;9.82;;;;;;;;;;5094419;28;20047;-48
2022/03/26 12:32:29;;;;;;;18.23;9.70;;;;;;;;;;5094401;28;20027;-49
2022/03/26 12:34:58;;;;;;;14.45;9.13;;;;;;;;;;5094714;28;20020;-51
2022/03/26 12:37:25;;;;;;;13.43;9.75;;;;;;;;;;5094212;28;20024;-47
2022/03/26 12:39:51;;;;;;;14.27;9.20;;;;;;;;;;5094422;28;20039;-46
2022/03/26 12:42:17;;;;;;;16.20;9.23;;;;;;;;;;5094418;28;20035;-47
2022/03/26 12:44:43;;;;;;;16.17;8.77;;;;;;;;;;5093596;28;20379;-48
2022/03/26 12:47:09;;;;;;;17.70;9.13;;;;;;;;;;5093964;28;20028;-46
2022/03/26 12:49:36;;;;;;;15.85;8.95;;;;;;;;;;5094035;28;20035;-48
2022/03/26 12:52:03;;;;;;;17.48;8.63;;;;;;;;;;5093903;28;20055;-48
2022/03/26 12:54:29;;;;;;;13.30;7.82;;;;;;;;;;5094463;28;20031;-50
2022/03/26 12:56:55;;;;;;;17.05;7.45;;;;;;;;;;5094444;28;20028;-47
2022/03/26 12:59:20;;;;;;;11.18;6.28;;;;;;;;;;5093616;28;20048;-49
2022/03/26 13:01:47;;;;;;;20.42;6.78;;;;;;;;;;5094030;28;20020;-50
2022/03/26 13:04:19;;;;;;;21.83;6.03;;;;;;;;;;5094062;28;20069;-51
2022/03/26 13:06:44;;;;;;;16.48;5.55;;;;;;;;;;5093892;28;20034;-47
2022/03/26 13:09:09;;;;;;;10.27;5.03;;;;;;;;;;5093961;28;20115;-49
2022/03/26 13:11:36;;;;;;;30.85;5.68;;;;;;;;;;5093870;28;20409;-49
2022/03/26 13:14:05;;;;;;;9.45;4.85;;;;;;;;;;5093524;28;20116;-48
2022/03/26 13:16:32;;;;;;;9.20;5.28;;;;;;;;;;5093772;28;20111;-49
2022/03/26 13:19:08;;;;;;;13.55;5.93;;;;;;;;;;5093696;28;20074;-50
2022/03/26 13:21:38;;;;;;;17.38;5.78;;;;;;;;;;5093498;28;20492;-49
2022/03/26 13:24:09;;;;;;;11.23;5.68;;;;;;;;;;5093657;28;20024;-51
2022/03/26 13:26:51;;;;;;;19.17;6.15;;;;;;;;;;5093584;28;20066;-50
2022/03/26 13:29:21;;;;;;;14.73;6.05;;;;;;;;;;5093489;28;20062;-50
2022/03/26 13:31:51;;;;;;;;;;;;;;;;;;5093694;28;20495;-48
2022/03/26 13:34:22;;;;;;;9.50;5.15;;;;;;;;;;5093052;28;19907;-50
2022/03/26 13:36:48;;;;;;;12.02;5.43;;;;;;;;;;5093461;28;20038;-49
2022/03/26 13:39:15;;;;;;;11.35;4.97;;;;;;;;;;5093326;28;20427;-50
2022/03/26 13:41:41;;;;;;;8.07;5.38;;;;;;;;;;5093348;28;20089;-52
2022/03/26 13:44:06;;;;;;;8.35;5.55;;;;;;;;;;5092917;28;20471;-49
2022/03/26 13:46:35;;;;;;;9.55;5.63;;;;;;;;;;5093108;28;20024;-49
2022/03/26 13:49:01;;;;;;;10.27;5.82;;;;;;;;;;5093178;28;20030;-52
2022/03/26 13:51:32;;;;;;;14.77;5.68;;;;;;;;;;5092915;28;20435;-51
2022/03/26 13:54:04;;;;;;;12.63;5.57;;;;;;;;;;5092770;28;20052;-51
2022/03/26 13:56:32;;;;;;;11.45;5.45;;;;;;;;;;5093099;28;20024;-50
2022/03/26 13:59:06;;;;;;;8.15;5.03;;;;;;;;;;5092488;28;20048;-49
2022/03/26 14:01:38;;;;;;;11.10;5.25;;;;;;;;;;5093103;28;20165;-47
2022/03/26 14:04:03;;;;;;;13.27;5.60;;;;;;;;;;5092886;28;20039;-48
2022/03/26 14:06:29;;;;;;;10.45;6.20;;;;;;;;;;5092563;28;20031;-48
2022/03/26 14:08:55;;;;;;;8.93;5.78;;;;;;;;;;5093166;28;20043;-50
2022/03/26 14:11:20;;;;;;;13.93;5.53;;;;;;;;;;5092884;28;20020;-48
2022/03/26 14:13:47;;;;;;;12.90;5.95;;;;;;;;;;5092837;28;20032;-48
2022/03/26 14:16:12;;;;;;;13.02;6.25;;;;;;;;;;5092455;28;20028;-49
2022/03/26 14:18:38;;;;;;;10.85;5.22;;;;;;;;;;5092712;28;20032;-48
2022/03/26 14:21:05;;;;;;;9.57;5.50;;;;;;;;;;5092777;28;20028;-48
2022/03/26 14:23:31;;;;;;;13.32;5.88;;;;;;;;;;5092665;28;20060;-51
2022/03/26 14:25:58;;;;;;;10.68;5.68;;;;;;;;;;5092770;28;20074;-50
2022/03/26 14:28:24;;;;;;;11.73;6.43;;;;;;;;;;5092589;28;20042;-53
2022/03/26 14:30:49;;;;;;;13.57;6.50;;;;;;;;;;5092683;28;20103;-50
2022/03/26 14:33:16;;;;;;;11.50;6.18;;;;;;;;;;5092374;28;20071;-49
2022/03/26 14:35:47;;;;;;;13.30;6.47;;;;;;;;;;5092655;28;20024;-53
2022/03/26 14:38:13;;;;;;;10.85;6.72;;;;;;;;;;5092356;28;20089;-49